sensor_id;sensor_type;location;lat;lon;timestamp;P1;durP1;ratioP1;P2;durP2;ratioP2
73421;SDS011;61637;47.760;-122.022;2023-01-08T00:00:02;3.1;;;1.1;;
73421;SDS011;61637;47.760;-122.022;2023-01-08T00:02:02;2.5;;;1.0;;
73421;SDS011;61637;47.760;-122.022;2023-01-08T00:04:01;6.8;;;1.1;;
73421;SDS011;61637;47.760;-122.022;2023-01-08T00:06:02;5.7;;;1.3;;
73421;SDS011;61637;47.760;-122.022;2023-01-08T00:08:01;3.4;;;1.2;;
73421;SDS011;61637;47.760;-122.022;2023-01-08T00:10:01;4.6;;;1.4;;
73421;SDS011;61637;47.760;-122.022;2023-01-08T00:12:01;4.1;;;1.2;;
73421;SDS011;61637;47.760;-122.022;2023-01-08T00:14:01;3.1;;;1.2;;
73421;SDS011;61637;47.760;-122.022;2023-01-08T00:16:03;3.9;;;1.4;;
73421;SDS011;61637;47.760;-122.022;2023-01-08T00:18:01;3.9;;;1.1;;
73421;SDS011;61637;47.760;-122.022;2023-01-08T00:20:01;5.6;;;1.2;;
73421;SDS011;61637;47.760;-122.022;2023-01-08T00:22:01;4.7;;;1.4;;
73421;SDS011;61637;47.760;-122.022;2023-01-08T00:24:01;8.3;;;1.9;;
73421;SDS011;61637;47.760;-122.022;2023-01-08T00:26:02;6.2;;;1.3;;
73421;SDS011;61637;47.760;-122.022;2023-01-08T00:28:01;4.2;;;1.5;;
73421;SDS011;61637;47.760;-122.022;2023-01-08T00:30:01;5.3;;;1.5;;
73421;SDS011;61637;47.760;-122.022;2023-01-08T00:32:01;3.7;;;1.3;;
73421;SDS011;61637;47.760;-122.022;2023-01-08T00:34:01;4.0;;;1.3;;
73421;SDS011;61637;47.760;-122.022;2023-01-08T00:36:06;4.8;;;1.5;;
73421;SDS011;61637;47.760;-122.022;2023-01-08T00:38:02;4.8;;;1.5;;
73421;SDS011;61637;47.760;-122.022;2023-01-08T00:40:01;5.8;;;1.4;;
73421;SDS011;61637;47.760;-122.022;2023-01-08T00:42:01;5.4;;;1.6;;
73421;SDS011;61637;47.760;-122.022;2023-01-08T00:44:01;5.9;;;1.5;;
73421;SDS011;61637;47.760;-122.022;2023-01-08T00:46:01;5.9;;;1.7;;
73421;SDS011;61637;47.760;-122.022;2023-01-08T00:48:01;4.7;;;1.6;;
73421;SDS011;61637;47.760;-122.022;2023-01-08T00:50:02;4.5;;;1.8;;
73421;SDS011;61637;47.760;-122.022;2023-01-08T00:52:01;5.0;;;1.6;;
73421;SDS011;61637;47.760;-122.022;2023-01-08T00:54:01;7.0;;;1.9;;
73421;SDS011;61637;47.760;-122.022;2023-01-08T00:56:03;5.2;;;1.6;;
73421;SDS011;61637;47.760;-122.022;2023-01-08T00:58:01;5.4;;;1.7;;
73421;SDS011;61637;47.760;-122.022;2023-01-08T01:00:03;5.3;;;1.7;;
73421;SDS011;61637;47.760;-122.022;2023-01-08T01:02:01;5.4;;;1.7;;
73421;SDS011;61637;47.760;-122.022;2023-01-08T01:04:01;5.2;;;1.9;;
73421;SDS011;61637;47.760;-122.022;2023-01-08T01:06:02;6.9;;;2.1;;
73421;SDS011;61637;47.760;-122.022;2023-01-08T01:08:01;6.2;;;2.3;;
73421;SDS011;61637;47.760;-122.022;2023-01-08T01:10:01;4.8;;;2.0;;
73421;SDS011;61637;47.760;-122.022;2023-01-08T01:12:01;4.9;;;2.2;;
73421;SDS011;61637;47.760;-122.022;2023-01-08T01:14:02;6.0;;;2.0;;
73421;SDS011;61637;47.760;-122.022;2023-01-08T01:16:02;5.4;;;1.8;;
73421;SDS011;61637;47.760;-122.022;2023-01-08T01:18:01;5.1;;;1.9;;
73421;SDS011;61637;47.760;-122.022;2023-01-08T01:20:01;4.6;;;1.9;;
73421;SDS011;61637;47.760;-122.022;2023-01-08T01:22:01;5.9;;;2.2;;
73421;SDS011;61637;47.760;-122.022;2023-01-08T01:24:04;7.8;;;2.1;;
73421;SDS011;61637;47.760;-122.022;2023-01-08T01:26:01;5.5;;;2.0;;
73421;SDS011;61637;47.760;-122.022;2023-01-08T01:28:01;5.1;;;1.8;;
73421;SDS011;61637;47.760;-122.022;2023-01-08T01:30:02;5.7;;;2.1;;
73421;SDS011;61637;47.760;-122.022;2023-01-08T01:32:01;4.3;;;1.7;;
73421;SDS011;61637;47.760;-122.022;2023-01-08T01:34:01;6.6;;;1.9;;
73421;SDS011;61637;47.760;-122.022;2023-01-08T01:36:01;4.8;;;1.7;;
73421;SDS011;61637;47.760;-122.022;2023-01-08T01:38:01;5.2;;;1.7;;
73421;SDS011;61637;47.760;-122.022;2023-01-08T01:40:02;4.9;;;1.7;;
73421;SDS011;61637;47.760;-122.022;2023-01-08T01:42:01;4.4;;;1.7;;
73421;SDS011;61637;47.760;-122.022;2023-01-08T01:46:02;6.4;;;1.7;;
73421;SDS011;61637;47.760;-122.022;2023-01-08T01:48:04;5.3;;;1.8;;
73421;SDS011;61637;47.760;-122.022;2023-01-08T01:50:04;7.5;;;2.0;;
73421;SDS011;61637;47.760;-122.022;2023-01-08T01:52:02;7.9;;;1.8;;
73421;SDS011;61637;47.760;-122.022;2023-01-08T01:54:04;4.4;;;1.7;;
73421;SDS011;61637;47.760;-122.022;2023-01-08T01:56:02;4.5;;;1.6;;
73421;SDS011;61637;47.760;-122.022;2023-01-08T01:58:05;6.1;;;1.9;;
73421;SDS011;61637;47.760;-122.022;2023-01-08T02:00:04;5.5;;;1.9;;
73421;SDS011;61637;47.760;-122.022;2023-01-08T02:02:01;6.1;;;2.3;;
73421;SDS011;61637;47.760;-122.022;2023-01-08T02:04:01;7.2;;;2.5;;
73421;SDS011;61637;47.760;-122.022;2023-01-08T02:06:07;6.2;;;1.9;;
73421;SDS011;61637;47.760;-122.022;2023-01-08T02:08:06;5.8;;;2.2;;
73421;SDS011;61637;47.760;-122.022;2023-01-08T02:10:06;5.1;;;2.2;;
73421;SDS011;61637;47.760;-122.022;2023-01-08T02:12:06;6.1;;;1.7;;
73421;SDS011;61637;47.760;-122.022;2023-01-08T02:14:06;6.2;;;1.6;;
73421;SDS011;61637;47.760;-122.022;2023-01-08T02:16:06;5.8;;;1.7;;
73421;SDS011;61637;47.760;-122.022;2023-01-08T02:18:05;6.7;;;1.8;;
73421;SDS011;61637;47.760;-122.022;2023-01-08T02:20:08;6.3;;;1.6;;
73421;SDS011;61637;47.760;-122.022;2023-01-08T02:22:09;6.0;;;1.6;;
73421;SDS011;61637;47.760;-122.022;2023-01-08T02:24:09;3.8;;;1.2;;
73421;SDS011;61637;47.760;-122.022;2023-01-08T02:26:05;3.8;;;1.4;;
73421;SDS011;61637;47.760;-122.022;2023-01-08T02:28:05;5.5;;;1.3;;
73421;SDS011;61637;47.760;-122.022;2023-01-08T02:30:02;3.7;;;1.3;;
73421;SDS011;61637;47.760;-122.022;2023-01-08T02:32:01;3.3;;;1.2;;
73421;SDS011;61637;47.760;-122.022;2023-01-08T02:34:01;4.1;;;1.2;;
73421;SDS011;61637;47.760;-122.022;2023-01-08T02:38:01;4.8;;;1.4;;
73421;SDS011;61637;47.760;-122.022;2023-01-08T02:40:06;7.0;;;3.1;;
73421;SDS011;61637;47.760;-122.022;2023-01-08T02:42:06;11.2;;;5.4;;
73421;SDS011;61637;47.760;-122.022;2023-01-08T02:44:03;11.6;;;5.9;;
73421;SDS011;61637;47.760;-122.022;2023-01-08T02:46:01;9.4;;;4.1;;
73421;SDS011;61637;47.760;-122.022;2023-01-08T02:48:09;9.1;;;5.6;;
73421;SDS011;61637;47.760;-122.022;2023-01-08T02:50:07;9.3;;;5.4;;
73421;SDS011;61637;47.760;-122.022;2023-01-08T02:52:02;8.3;;;5.0;;
73421;SDS011;61637;47.760;-122.022;2023-01-08T02:54:04;9.2;;;4.7;;
73421;SDS011;61637;47.760;-122.022;2023-01-08T02:56:06;7.9;;;4.1;;
73421;SDS011;61637;47.760;-122.022;2023-01-08T02:58:02;6.8;;;3.1;;
73421;SDS011;61637;47.760;-122.022;2023-01-08T03:00:01;8.1;;;2.8;;
73421;SDS011;61637;47.760;-122.022;2023-01-08T03:02:02;6.3;;;2.1;;
73421;SDS011;61637;47.760;-122.022;2023-01-08T03:04:05;8.6;;;4.9;;
73421;SDS011;61637;47.760;-122.022;2023-01-08T03:06:04;6.5;;;3.6;;
73421;SDS011;61637;47.760;-122.022;2023-01-08T03:08:02;6.8;;;2.9;;
73421;SDS011;61637;47.760;-122.022;2023-01-08T03:10:01;6.2;;;2.7;;
73421;SDS011;61637;47.760;-122.022;2023-01-08T03:12:07;5.7;;;2.4;;
73421;SDS011;61637;47.760;-122.022;2023-01-08T03:14:05;11.8;;;1.9;;
73421;SDS011;61637;47.760;-122.022;2023-01-08T03:16:04;6.9;;;2.3;;
73421;SDS011;61637;47.760;-122.022;2023-01-08T03:18:06;4.7;;;1.9;;
73421;SDS011;61637;47.760;-122.022;2023-01-08T03:20:06;5.7;;;1.8;;
73421;SDS011;61637;47.760;-122.022;2023-01-08T03:22:03;6.1;;;1.8;;
73421;SDS011;61637;47.760;-122.022;2023-01-08T03:24:03;4.8;;;1.5;;
73421;SDS011;61637;47.760;-122.022;2023-01-08T03:26:02;5.3;;;1.5;;
73421;SDS011;61637;47.760;-122.022;2023-01-08T03:28:03;4.8;;;1.5;;
73421;SDS011;61637;47.760;-122.022;2023-01-08T03:30:03;4.2;;;1.5;;
73421;SDS011;61637;47.760;-122.022;2023-01-08T03:32:04;4.0;;;1.6;;
73421;SDS011;61637;47.760;-122.022;2023-01-08T03:34:03;4.6;;;1.3;;
73421;SDS011;61637;47.760;-122.022;2023-01-08T03:36:03;4.1;;;1.4;;
73421;SDS011;61637;47.760;-122.022;2023-01-08T03:38:07;5.7;;;1.6;;
73421;SDS011;61637;47.760;-122.022;2023-01-08T03:40:05;5.0;;;1.4;;
73421;SDS011;61637;47.760;-122.022;2023-01-08T03:42:05;4.5;;;1.5;;
73421;SDS011;61637;47.760;-122.022;2023-01-08T03:44:02;4.8;;;1.5;;
73421;SDS011;61637;47.760;-122.022;2023-01-08T03:46:03;4.6;;;1.6;;
73421;SDS011;61637;47.760;-122.022;2023-01-08T03:48:03;5.0;;;1.4;;
73421;SDS011;61637;47.760;-122.022;2023-01-08T03:50:05;8.5;;;1.6;;
73421;SDS011;61637;47.760;-122.022;2023-01-08T03:52:01;6.5;;;1.7;;
73421;SDS011;61637;47.760;-122.022;2023-01-08T03:54:01;4.7;;;1.4;;
73421;SDS011;61637;47.760;-122.022;2023-01-08T03:56:02;4.6;;;1.5;;
73421;SDS011;61637;47.760;-122.022;2023-01-08T03:58:02;4.4;;;1.6;;
73421;SDS011;61637;47.760;-122.022;2023-01-08T04:00:02;4.4;;;1.6;;
73421;SDS011;61637;47.760;-122.022;2023-01-08T04:02:01;5.1;;;1.6;;
73421;SDS011;61637;47.760;-122.022;2023-01-08T04:04:01;4.7;;;1.7;;
73421;SDS011;61637;47.760;-122.022;2023-01-08T04:06:01;4.9;;;1.8;;
73421;SDS011;61637;47.760;-122.022;2023-01-08T04:08:01;5.8;;;1.8;;
73421;SDS011;61637;47.760;-122.022;2023-01-08T04:10:01;5.4;;;1.7;;
73421;SDS011;61637;47.760;-122.022;2023-01-08T04:12:02;4.7;;;1.7;;
73421;SDS011;61637;47.760;-122.022;2023-01-08T04:14:01;4.2;;;1.6;;
73421;SDS011;61637;47.760;-122.022;2023-01-08T04:16:01;4.4;;;1.6;;
73421;SDS011;61637;47.760;-122.022;2023-01-08T04:18:01;4.6;;;1.5;;
73421;SDS011;61637;47.760;-122.022;2023-01-08T04:20:01;4.0;;;1.5;;
73421;SDS011;61637;47.760;-122.022;2023-01-08T04:22:01;6.3;;;1.6;;
73421;SDS011;61637;47.760;-122.022;2023-01-08T04:24:01;6.4;;;1.7;;
73421;SDS011;61637;47.760;-122.022;2023-01-08T04:26:03;5.2;;;1.7;;
73421;SDS011;61637;47.760;-122.022;2023-01-08T04:28:01;5.8;;;1.8;;
73421;SDS011;61637;47.760;-122.022;2023-01-08T04:30:01;6.1;;;2.0;;
73421;SDS011;61637;47.760;-122.022;2023-01-08T04:32:01;5.8;;;2.0;;
73421;SDS011;61637;47.760;-122.022;2023-01-08T04:34:01;4.3;;;1.7;;
73421;SDS011;61637;47.760;-122.022;2023-01-08T04:36:02;3.6;;;1.3;;
73421;SDS011;61637;47.760;-122.022;2023-01-08T04:38:01;3.8;;;1.4;;
73421;SDS011;61637;47.760;-122.022;2023-01-08T04:40:01;3.9;;;1.5;;
73421;SDS011;61637;47.760;-122.022;2023-01-08T04:42:01;4.4;;;1.3;;
73421;SDS011;61637;47.760;-122.022;2023-01-08T04:44:01;5.5;;;1.4;;
73421;SDS011;61637;47.760;-122.022;2023-01-08T04:46:03;4.3;;;1.4;;
73421;SDS011;61637;47.760;-122.022;2023-01-08T04:48:01;4.7;;;1.5;;
73421;SDS011;61637;47.760;-122.022;2023-01-08T04:50:01;3.9;;;1.4;;
73421;SDS011;61637;47.760;-122.022;2023-01-08T04:52:01;6.2;;;1.3;;
73421;SDS011;61637;47.760;-122.022;2023-01-08T04:54:01;4.7;;;1.2;;
73421;SDS011;61637;47.760;-122.022;2023-01-08T04:56:02;4.4;;;1.6;;
73421;SDS011;61637;47.760;-122.022;2023-01-08T04:58:01;5.1;;;1.3;;
73421;SDS011;61637;47.760;-122.022;2023-01-08T05:00:01;4.9;;;1.3;;
73421;SDS011;61637;47.760;-122.022;2023-01-08T05:02:01;4.9;;;1.3;;
73421;SDS011;61637;47.760;-122.022;2023-01-08T05:04:03;7.7;;;1.4;;
73421;SDS011;61637;47.760;-122.022;2023-01-08T05:06:01;7.7;;;1.4;;
73421;SDS011;61637;47.760;-122.022;2023-01-08T05:08:01;4.2;;;1.3;;
73421;SDS011;61637;47.760;-122.022;2023-01-08T05:10:03;4.1;;;1.4;;
73421;SDS011;61637;47.760;-122.022;2023-01-08T05:12:01;6.0;;;1.3;;
73421;SDS011;61637;47.760;-122.022;2023-01-08T05:14:01;3.7;;;1.2;;
73421;SDS011;61637;47.760;-122.022;2023-01-08T05:16:01;5.0;;;1.3;;
73421;SDS011;61637;47.760;-122.022;2023-01-08T05:18:04;4.0;;;1.2;;
73421;SDS011;61637;47.760;-122.022;2023-01-08T05:20:01;3.7;;;1.1;;
73421;SDS011;61637;47.760;-122.022;2023-01-08T05:22:01;6.1;;;1.2;;
73421;SDS011;61637;47.760;-122.022;2023-01-08T05:24:01;8.0;;;1.1;;
73421;SDS011;61637;47.760;-122.022;2023-01-08T05:26:03;5.2;;;1.1;;
73421;SDS011;61637;47.760;-122.022;2023-01-08T05:28:01;3.9;;;1.1;;
73421;SDS011;61637;47.760;-122.022;2023-01-08T05:30:01;5.7;;;1.2;;
73421;SDS011;61637;47.760;-122.022;2023-01-08T05:32:02;8.3;;;1.1;;
73421;SDS011;61637;47.760;-122.022;2023-01-08T05:34:01;3.9;;;1.1;;
73421;SDS011;61637;47.760;-122.022;2023-01-08T05:36:05;4.3;;;1.1;;
73421;SDS011;61637;47.760;-122.022;2023-01-08T05:38:01;5.5;;;1.1;;
73421;SDS011;61637;47.760;-122.022;2023-01-08T05:40:02;4.8;;;1.1;;
73421;SDS011;61637;47.760;-122.022;2023-01-08T05:42:02;5.8;;;1.2;;
73421;SDS011;61637;47.760;-122.022;2023-01-08T05:44:01;3.4;;;1.1;;
73421;SDS011;61637;47.760;-122.022;2023-01-08T05:46:02;4.9;;;1.0;;
73421;SDS011;61637;47.760;-122.022;2023-01-08T05:48:04;4.8;;;1.0;;
73421;SDS011;61637;47.760;-122.022;2023-01-08T05:50:02;6.8;;;1.1;;
73421;SDS011;61637;47.760;-122.022;2023-01-08T05:52:01;3.9;;;1.0;;
73421;SDS011;61637;47.760;-122.022;2023-01-08T05:54:01;4.7;;;0.9;;
73421;SDS011;61637;47.760;-122.022;2023-01-08T05:56:04;5.2;;;1.1;;
73421;SDS011;61637;47.760;-122.022;2023-01-08T05:58:02;5.2;;;1.1;;
73421;SDS011;61637;47.760;-122.022;2023-01-08T06:00:03;2.7;;;0.9;;
73421;SDS011;61637;47.760;-122.022;2023-01-08T06:02:01;4.2;;;1.1;;
73421;SDS011;61637;47.760;-122.022;2023-01-08T06:04:01;4.1;;;1.0;;
73421;SDS011;61637;47.760;-122.022;2023-01-08T06:06:03;7.3;;;1.3;;
73421;SDS011;61637;47.760;-122.022;2023-01-08T06:08:01;5.1;;;1.1;;
73421;SDS011;61637;47.760;-122.022;2023-01-08T06:10:01;6.5;;;1.0;;
73421;SDS011;61637;47.760;-122.022;2023-01-08T06:12:01;5.8;;;1.1;;
73421;SDS011;61637;47.760;-122.022;2023-01-08T06:14:01;4.6;;;1.0;;
73421;SDS011;61637;47.760;-122.022;2023-01-08T06:16:01;5.0;;;1.0;;
73421;SDS011;61637;47.760;-122.022;2023-01-08T06:18:02;4.8;;;1.1;;
73421;SDS011;61637;47.760;-122.022;2023-01-08T06:20:01;5.0;;;1.1;;
73421;SDS011;61637;47.760;-122.022;2023-01-08T06:22:02;4.1;;;1.2;;
73421;SDS011;61637;47.760;-122.022;2023-01-08T06:24:01;4.2;;;1.1;;
73421;SDS011;61637;47.760;-122.022;2023-01-08T06:26:02;4.5;;;1.1;;
73421;SDS011;61637;47.760;-122.022;2023-01-08T06:28:01;4.6;;;1.1;;
73421;SDS011;61637;47.760;-122.022;2023-01-08T06:30:01;3.8;;;1.1;;
73421;SDS011;61637;47.760;-122.022;2023-01-08T06:32:01;3.2;;;0.9;;
73421;SDS011;61637;47.760;-122.022;2023-01-08T06:34:02;4.3;;;1.1;;
73421;SDS011;61637;47.760;-122.022;2023-01-08T06:36:03;4.2;;;1.0;;
73421;SDS011;61637;47.760;-122.022;2023-01-08T06:38:01;3.0;;;1.0;;
73421;SDS011;61637;47.760;-122.022;2023-01-08T06:40:01;4.2;;;1.0;;
73421;SDS011;61637;47.760;-122.022;2023-01-08T06:42:01;2.5;;;0.8;;
73421;SDS011;61637;47.760;-122.022;2023-01-08T06:44:02;5.5;;;1.0;;
73421;SDS011;61637;47.760;-122.022;2023-01-08T06:46:02;3.8;;;1.0;;
73421;SDS011;61637;47.760;-122.022;2023-01-08T06:48:02;3.8;;;0.9;;
73421;SDS011;61637;47.760;-122.022;2023-01-08T06:50:01;5.7;;;1.1;;
73421;SDS011;61637;47.760;-122.022;2023-01-08T06:52:01;5.1;;;1.0;;
73421;SDS011;61637;47.760;-122.022;2023-01-08T06:54:03;2.9;;;0.9;;
73421;SDS011;61637;47.760;-122.022;2023-01-08T06:56:02;4.3;;;1.0;;
73421;SDS011;61637;47.760;-122.022;2023-01-08T06:58:01;2.5;;;0.8;;
73421;SDS011;61637;47.760;-122.022;2023-01-08T07:00:01;4.9;;;0.9;;
73421;SDS011;61637;47.760;-122.022;2023-01-08T07:02:01;3.1;;;0.8;;
73421;SDS011;61637;47.760;-122.022;2023-01-08T07:04:01;1.9;;;0.7;;
73421;SDS011;61637;47.760;-122.022;2023-01-08T07:06:02;3.5;;;0.8;;
73421;SDS011;61637;47.760;-122.022;2023-01-08T07:08:01;2.4;;;0.7;;
73421;SDS011;61637;47.760;-122.022;2023-01-08T07:10:01;2.9;;;0.9;;
73421;SDS011;61637;47.760;-122.022;2023-01-08T07:12:01;2.4;;;0.7;;
73421;SDS011;61637;47.760;-122.022;2023-01-08T07:14:01;2.6;;;0.8;;
73421;SDS011;61637;47.760;-122.022;2023-01-08T07:16:05;3.1;;;0.8;;
73421;SDS011;61637;47.760;-122.022;2023-01-08T07:18:03;3.5;;;0.8;;
73421;SDS011;61637;47.760;-122.022;2023-01-08T07:20:01;3.2;;;0.7;;
73421;SDS011;61637;47.760;-122.022;2023-01-08T07:22:01;4.4;;;0.8;;
73421;SDS011;61637;47.760;-122.022;2023-01-08T07:24:01;4.0;;;0.8;;
73421;SDS011;61637;47.760;-122.022;2023-01-08T07:26:02;3.9;;;0.8;;
73421;SDS011;61637;47.760;-122.022;2023-01-08T07:28:02;4.6;;;0.9;;
73421;SDS011;61637;47.760;-122.022;2023-01-08T07:30:01;2.8;;;0.7;;
73421;SDS011;61637;47.760;-122.022;2023-01-08T07:32:02;3.0;;;0.8;;
73421;SDS011;61637;47.760;-122.022;2023-01-08T07:34:01;1.8;;;0.7;;
73421;SDS011;61637;47.760;-122.022;2023-01-08T07:36:01;4.3;;;0.7;;
73421;SDS011;61637;47.760;-122.022;2023-01-08T07:38:01;2.2;;;0.7;;
73421;SDS011;61637;47.760;-122.022;2023-01-08T07:40:01;3.2;;;0.7;;
73421;SDS011;61637;47.760;-122.022;2023-01-08T07:42:01;1.9;;;0.7;;
73421;SDS011;61637;47.760;-122.022;2023-01-08T07:44:01;3.4;;;0.8;;
73421;SDS011;61637;47.760;-122.022;2023-01-08T07:46:02;2.1;;;0.7;;
73421;SDS011;61637;47.760;-122.022;2023-01-08T07:48:01;3.4;;;0.8;;
73421;SDS011;61637;47.760;-122.022;2023-01-08T07:50:01;5.4;;;0.8;;
73421;SDS011;61637;47.760;-122.022;2023-01-08T07:52:01;3.1;;;0.7;;
73421;SDS011;61637;47.760;-122.022;2023-01-08T07:54:02;2.0;;;0.7;;
73421;SDS011;61637;47.760;-122.022;2023-01-08T07:56:02;2.7;;;0.8;;
73421;SDS011;61637;47.760;-122.022;2023-01-08T07:58:07;3.6;;;0.7;;
73421;SDS011;61637;47.760;-122.022;2023-01-08T08:00:01;2.8;;;0.6;;
73421;SDS011;61637;47.760;-122.022;2023-01-08T08:02:01;2.9;;;0.7;;
73421;SDS011;61637;47.760;-122.022;2023-01-08T08:04:01;4.4;;;0.8;;
73421;SDS011;61637;47.760;-122.022;2023-01-08T08:06:02;3.8;;;0.7;;
73421;SDS011;61637;47.760;-122.022;2023-01-08T08:08:07;2.6;;;0.8;;
73421;SDS011;61637;47.760;-122.022;2023-01-08T08:10:02;3.8;;;0.9;;
73421;SDS011;61637;47.760;-122.022;2023-01-08T08:12:01;4.1;;;0.8;;
73421;SDS011;61637;47.760;-122.022;2023-01-08T08:14:01;2.2;;;0.7;;
73421;SDS011;61637;47.760;-122.022;2023-01-08T08:16:02;2.0;;;0.8;;
73421;SDS011;61637;47.760;-122.022;2023-01-08T08:18:02;2.5;;;0.7;;
73421;SDS011;61637;47.760;-122.022;2023-01-08T08:20:01;2.7;;;0.7;;
73421;SDS011;61637;47.760;-122.022;2023-01-08T08:22:01;3.1;;;0.8;;
73421;SDS011;61637;47.760;-122.022;2023-01-08T08:24:01;2.4;;;0.7;;
73421;SDS011;61637;47.760;-122.022;2023-01-08T08:26:02;2.7;;;0.7;;
73421;SDS011;61637;47.760;-122.022;2023-01-08T08:28:02;1.7;;;0.6;;
73421;SDS011;61637;47.760;-122.022;2023-01-08T08:30:01;3.0;;;0.7;;
73421;SDS011;61637;47.760;-122.022;2023-01-08T08:32:01;3.1;;;0.8;;
73421;SDS011;61637;47.760;-122.022;2023-01-08T08:34:01;1.9;;;0.6;;
73421;SDS011;61637;47.760;-122.022;2023-01-08T08:36:01;1.8;;;0.6;;
73421;SDS011;61637;47.760;-122.022;2023-01-08T08:38:02;4.1;;;0.7;;
73421;SDS011;61637;47.760;-122.022;2023-01-08T08:40:01;3.8;;;0.8;;
73421;SDS011;61637;47.760;-122.022;2023-01-08T08:42:02;2.9;;;0.7;;
73421;SDS011;61637;47.760;-122.022;2023-01-08T08:44:01;2.1;;;0.6;;
73421;SDS011;61637;47.760;-122.022;2023-01-08T08:46:01;2.7;;;0.7;;
73421;SDS011;61637;47.760;-122.022;2023-01-08T08:48:04;2.3;;;0.7;;
73421;SDS011;61637;47.760;-122.022;2023-01-08T08:50:01;1.7;;;0.6;;
73421;SDS011;61637;47.760;-122.022;2023-01-08T08:52:02;2.3;;;0.7;;
73421;SDS011;61637;47.760;-122.022;2023-01-08T08:54:01;1.8;;;0.6;;
73421;SDS011;61637;47.760;-122.022;2023-01-08T08:56:01;3.2;;;0.8;;
73421;SDS011;61637;47.760;-122.022;2023-01-08T08:58:02;4.4;;;0.9;;
73421;SDS011;61637;47.760;-122.022;2023-01-08T09:00:01;3.5;;;0.8;;
73421;SDS011;61637;47.760;-122.022;2023-01-08T09:02:02;6.0;;;0.8;;
73421;SDS011;61637;47.760;-122.022;2023-01-08T09:04:01;3.1;;;0.7;;
73421;SDS011;61637;47.760;-122.022;2023-01-08T09:06:02;2.5;;;0.7;;
73421;SDS011;61637;47.760;-122.022;2023-01-08T09:08:01;4.9;;;0.7;;
73421;SDS011;61637;47.760;-122.022;2023-01-08T09:10:02;3.3;;;0.7;;
73421;SDS011;61637;47.760;-122.022;2023-01-08T09:12:01;3.6;;;0.9;;
73421;SDS011;61637;47.760;-122.022;2023-01-08T09:14:01;2.6;;;0.8;;
73421;SDS011;61637;47.760;-122.022;2023-01-08T09:16:01;3.1;;;0.8;;
73421;SDS011;61637;47.760;-122.022;2023-01-08T09:18:01;1.5;;;0.5;;
73421;SDS011;61637;47.760;-122.022;2023-01-08T09:20:01;1.8;;;0.7;;
73421;SDS011;61637;47.760;-122.022;2023-01-08T09:22:01;2.2;;;0.7;;
73421;SDS011;61637;47.760;-122.022;2023-01-08T09:24:01;2.5;;;0.6;;
73421;SDS011;61637;47.760;-122.022;2023-01-08T09:26:02;2.5;;;0.6;;
73421;SDS011;61637;47.760;-122.022;2023-01-08T09:28:03;4.0;;;0.7;;
73421;SDS011;61637;47.760;-122.022;2023-01-08T09:30:02;3.5;;;0.6;;
73421;SDS011;61637;47.760;-122.022;2023-01-08T09:32:01;3.1;;;0.6;;
73421;SDS011;61637;47.760;-122.022;2023-01-08T09:34:01;2.1;;;0.6;;
73421;SDS011;61637;47.760;-122.022;2023-01-08T09:36:01;2.7;;;0.6;;
73421;SDS011;61637;47.760;-122.022;2023-01-08T09:38:01;2.4;;;0.6;;
73421;SDS011;61637;47.760;-122.022;2023-01-08T09:40:01;2.0;;;0.6;;
73421;SDS011;61637;47.760;-122.022;2023-01-08T09:42:04;2.6;;;0.6;;
73421;SDS011;61637;47.760;-122.022;2023-01-08T09:44:03;2.0;;;0.6;;
73421;SDS011;61637;47.760;-122.022;2023-01-08T09:46:05;3.1;;;0.7;;
73421;SDS011;61637;47.760;-122.022;2023-01-08T09:48:04;3.0;;;0.8;;
73421;SDS011;61637;47.760;-122.022;2023-01-08T09:50:05;3.0;;;0.8;;
73421;SDS011;61637;47.760;-122.022;2023-01-08T09:52:01;3.7;;;0.9;;
73421;SDS011;61637;47.760;-122.022;2023-01-08T09:54:02;2.0;;;0.6;;
73421;SDS011;61637;47.760;-122.022;2023-01-08T09:56:03;2.6;;;0.7;;
73421;SDS011;61637;47.760;-122.022;2023-01-08T09:58:01;2.3;;;0.7;;
73421;SDS011;61637;47.760;-122.022;2023-01-08T10:00:02;3.4;;;0.7;;
73421;SDS011;61637;47.760;-122.022;2023-01-08T10:02:02;2.7;;;0.6;;
73421;SDS011;61637;47.760;-122.022;2023-01-08T10:04:05;1.4;;;0.5;;
73421;SDS011;61637;47.760;-122.022;2023-01-08T10:06:06;1.5;;;0.5;;
73421;SDS011;61637;47.760;-122.022;2023-01-08T10:08:03;1.6;;;0.6;;
73421;SDS011;61637;47.760;-122.022;2023-01-08T10:10:01;2.9;;;0.5;;
73421;SDS011;61637;47.760;-122.022;2023-01-08T10:12:03;1.5;;;0.6;;
73421;SDS011;61637;47.760;-122.022;2023-01-08T10:14:01;1.4;;;0.5;;
73421;SDS011;61637;47.760;-122.022;2023-01-08T10:16:03;2.6;;;0.6;;
73421;SDS011;61637;47.760;-122.022;2023-01-08T10:18:03;1.4;;;0.5;;
73421;SDS011;61637;47.760;-122.022;2023-01-08T10:20:01;1.1;;;0.4;;
73421;SDS011;61637;47.760;-122.022;2023-01-08T10:22:01;1.6;;;0.6;;
73421;SDS011;61637;47.760;-122.022;2023-01-08T10:24:01;2.0;;;0.6;;
73421;SDS011;61637;47.760;-122.022;2023-01-08T10:26:02;2.2;;;0.6;;
73421;SDS011;61637;47.760;-122.022;2023-01-08T10:28:02;1.8;;;0.6;;
73421;SDS011;61637;47.760;-122.022;2023-01-08T10:30:06;1.8;;;0.6;;
73421;SDS011;61637;47.760;-122.022;2023-01-08T10:32:07;1.7;;;0.6;;
73421;SDS011;61637;47.760;-122.022;2023-01-08T10:34:09;1.8;;;0.6;;
73421;SDS011;61637;47.760;-122.022;2023-01-08T10:36:03;2.0;;;0.6;;
73421;SDS011;61637;47.760;-122.022;2023-01-08T10:38:02;2.5;;;0.8;;
73421;SDS011;61637;47.760;-122.022;2023-01-08T10:40:04;1.7;;;0.6;;
73421;SDS011;61637;47.760;-122.022;2023-01-08T10:42:05;4.2;;;0.6;;
73421;SDS011;61637;47.760;-122.022;2023-01-08T10:44:03;3.5;;;0.6;;
73421;SDS011;61637;47.760;-122.022;2023-01-08T10:46:03;2.7;;;0.7;;
73421;SDS011;61637;47.760;-122.022;2023-01-08T10:48:04;1.6;;;0.6;;
73421;SDS011;61637;47.760;-122.022;2023-01-08T10:50:03;6.9;;;0.6;;
73421;SDS011;61637;47.760;-122.022;2023-01-08T10:52:01;2.0;;;0.6;;
73421;SDS011;61637;47.760;-122.022;2023-01-08T10:54:13;3.1;;;0.8;;
73421;SDS011;61637;47.760;-122.022;2023-01-08T10:56:03;1.4;;;0.6;;
73421;SDS011;61637;47.760;-122.022;2023-01-08T10:58:04;1.7;;;0.5;;
73421;SDS011;61637;47.760;-122.022;2023-01-08T11:00:01;2.2;;;0.6;;
73421;SDS011;61637;47.760;-122.022;2023-01-08T11:02:02;1.7;;;0.6;;
73421;SDS011;61637;47.760;-122.022;2023-01-08T11:04:03;2.4;;;0.5;;
73421;SDS011;61637;47.760;-122.022;2023-01-08T11:06:09;2.8;;;0.7;;
73421;SDS011;61637;47.760;-122.022;2023-01-08T11:08:04;4.2;;;0.6;;
73421;SDS011;61637;47.760;-122.022;2023-01-08T11:10:03;2.1;;;0.6;;
73421;SDS011;61637;47.760;-122.022;2023-01-08T11:12:01;2.5;;;0.6;;
73421;SDS011;61637;47.760;-122.022;2023-01-08T11:14:04;1.8;;;0.6;;
73421;SDS011;61637;47.760;-122.022;2023-01-08T11:16:03;2.2;;;0.6;;
73421;SDS011;61637;47.760;-122.022;2023-01-08T11:18:06;2.9;;;0.7;;
73421;SDS011;61637;47.760;-122.022;2023-01-08T11:20:17;3.1;;;0.7;;
73421;SDS011;61637;47.760;-122.022;2023-01-08T11:22:03;2.3;;;0.6;;
73421;SDS011;61637;47.760;-122.022;2023-01-08T11:24:10;4.1;;;0.7;;
73421;SDS011;61637;47.760;-122.022;2023-01-08T11:26:06;3.3;;;0.5;;
73421;SDS011;61637;47.760;-122.022;2023-01-08T11:28:03;3.6;;;0.6;;
73421;SDS011;61637;47.760;-122.022;2023-01-08T11:30:06;2.1;;;0.5;;
73421;SDS011;61637;47.760;-122.022;2023-01-08T11:32:10;1.9;;;0.6;;
73421;SDS011;61637;47.760;-122.022;2023-01-08T11:34:06;4.3;;;0.7;;
73421;SDS011;61637;47.760;-122.022;2023-01-08T11:36:06;4.8;;;0.7;;
73421;SDS011;61637;47.760;-122.022;2023-01-08T11:38:03;2.8;;;0.5;;
73421;SDS011;61637;47.760;-122.022;2023-01-08T11:40:01;2.9;;;0.6;;
73421;SDS011;61637;47.760;-122.022;2023-01-08T11:42:10;2.3;;;0.6;;
73421;SDS011;61637;47.760;-122.022;2023-01-08T11:44:15;1.5;;;0.5;;
73421;SDS011;61637;47.760;-122.022;2023-01-08T11:46:11;2.3;;;0.5;;
73421;SDS011;61637;47.760;-122.022;2023-01-08T11:48:16;1.7;;;0.6;;
73421;SDS011;61637;47.760;-122.022;2023-01-08T11:50:09;1.8;;;0.6;;
73421;SDS011;61637;47.760;-122.022;2023-01-08T11:52:14;1.6;;;0.6;;
73421;SDS011;61637;47.760;-122.022;2023-01-08T11:54:06;2.7;;;0.6;;